Terminal Aerodrome Forecast
Issued by NWS Miami, FL

Home | Current Version | Previous Version | Text Only | Print | Product List | Glossary On
Versions: 1 2 3 4 5 6 7 8 9 10 11 12 13 14 15 16 17 18 19 20 21 22 23 24 25 26 27 28 29 30 31 32 33 34 35 36 37 38 39 40 41 42 43 44 45 46 47 48 49 50
000
FTUS42 KMFL 281143
TAFAPF
TAF
KAPF 281143Z 2812/2912 10007KT P6SM VCSH OVC035
     FM281400 15008KT P6SM VCTS SCT025CB BKN050 BKN100
     FM281700 21012KT P6SM VCTS SCT020CB BKN050
      TEMPO 2817/2821 VRB15G25KT 5SM TSRA SCT025CB BKN040
     FM290200 21006KT P6SM BKN025=

USA.gov is the U.S. government's official web portal to all federal, state and local government web resources and services.